sensor_id;sensor_type;location;lat;lon;timestamp;temperature;humidity
11583;DHT22;34299;50.820;4.548;2024-03-23T00:55:52;6.60;99.90
11583;DHT22;34299;50.820;4.548;2024-03-23T00:58:19;6.70;99.90
11583;DHT22;34299;50.820;4.548;2024-03-23T01:00:45;6.70;99.90
11583;DHT22;34299;50.820;4.548;2024-03-23T01:03:11;6.70;99.90
11583;DHT22;34299;50.820;4.548;2024-03-23T01:05:37;6.50;99.90
11583;DHT22;34299;50.820;4.548;2024-03-23T01:08:05;6.90;99.90
11583;DHT22;34299;50.820;4.548;2024-03-23T01:10:32;6.80;99.90
11583;DHT22;34299;50.820;4.548;2024-03-23T01:12:59;6.80;99.90
11583;DHT22;34299;50.820;4.548;2024-03-23T01:15:25;7.00;99.90
11583;DHT22;34299;50.820;4.548;2024-03-23T01:17:52;7.10;99.90
11583;DHT22;34299;50.820;4.548;2024-03-23T01:20:18;6.90;99.90
11583;DHT22;34299;50.820;4.548;2024-03-23T01:22:45;7.00;99.90
11583;DHT22;34299;50.820;4.548;2024-03-23T01:25:11;6.80;99.90
11583;DHT22;34299;50.820;4.548;2024-03-23T01:27:39;6.80;99.90
11583;DHT22;34299;50.820;4.548;2024-03-23T01:30:06;6.70;99.90
11583;DHT22;34299;50.820;4.548;2024-03-23T01:32:33;6.70;99.90
11583;DHT22;34299;50.820;4.548;2024-03-23T01:34:59;6.70;99.90
11583;DHT22;34299;50.820;4.548;2024-03-23T01:37:26;6.80;99.90
11583;DHT22;34299;50.820;4.548;2024-03-23T01:39:52;6.80;99.90
11583;DHT22;34299;50.820;4.548;2024-03-23T01:42:19;6.90;99.90
11583;DHT22;34299;50.820;4.548;2024-03-23T01:44:47;6.90;99.90
11583;DHT22;34299;50.820;4.548;2024-03-23T01:47:14;6.70;99.90
11583;DHT22;34299;50.820;4.548;2024-03-23T01:49:40;6.70;99.90
11583;DHT22;34299;50.820;4.548;2024-03-23T01:52:07;6.80;99.90
11583;DHT22;34299;50.820;4.548;2024-03-23T01:54:35;6.70;99.90
11583;DHT22;34299;50.820;4.548;2024-03-23T01:57:01;6.90;99.90
11583;DHT22;34299;50.820;4.548;2024-03-23T01:59:28;6.90;99.90
11583;DHT22;34299;50.820;4.548;2024-03-23T02:01:55;6.80;99.90
11583;DHT22;34299;50.820;4.548;2024-03-23T02:04:22;6.90;99.90
11583;DHT22;34299;50.820;4.548;2024-03-23T02:06:51;6.70;99.90
11583;DHT22;34299;50.820;4.548;2024-03-23T02:09:18;6.40;99.90
11583;DHT22;34299;50.820;4.548;2024-03-23T02:11:44;6.40;99.90
11583;DHT22;34299;50.820;4.548;2024-03-23T02:14:11;6.30;99.90
11583;DHT22;34299;50.820;4.548;2024-03-23T02:16:37;6.30;99.90
11583;DHT22;34299;50.820;4.548;2024-03-23T02:19:05;6.30;99.90
11583;DHT22;34299;50.820;4.548;2024-03-23T02:21:31;6.50;99.90
11583;DHT22;34299;50.820;4.548;2024-03-23T02:24:00;6.50;99.90
11583;DHT22;34299;50.820;4.548;2024-03-23T02:26:26;6.40;99.90
11583;DHT22;34299;50.820;4.548;2024-03-23T02:28:53;6.50;99.90
11583;DHT22;34299;50.820;4.548;2024-03-23T02:31:19;6.40;99.90
11583;DHT22;34299;50.820;4.548;2024-03-23T02:33:46;6.40;99.90
11583;DHT22;34299;50.820;4.548;2024-03-23T02:36:12;6.30;99.90
11583;DHT22;34299;50.820;4.548;2024-03-23T02:38:38;6.20;99.90
11583;DHT22;34299;50.820;4.548;2024-03-23T02:41:06;6.40;99.90
11583;DHT22;34299;50.820;4.548;2024-03-23T02:43:33;6.30;99.90
11583;DHT22;34299;50.820;4.548;2024-03-23T02:45:58;6.30;99.90
11583;DHT22;34299;50.820;4.548;2024-03-23T02:48:26;6.10;99.90
11583;DHT22;34299;50.820;4.548;2024-03-23T02:50:53;6.30;99.90
11583;DHT22;34299;50.820;4.548;2024-03-23T02:53:19;6.30;99.90
11583;DHT22;34299;50.820;4.548;2024-03-23T02:55:46;6.20;99.90
11583;DHT22;34299;50.820;4.548;2024-03-23T02:58:14;6.30;99.90
11583;DHT22;34299;50.820;4.548;2024-03-23T03:00:40;6.20;99.90
11583;DHT22;34299;50.820;4.548;2024-03-23T03:03:06;6.30;99.90
11583;DHT22;34299;50.820;4.548;2024-03-23T03:05:34;6.30;99.90
11583;DHT22;34299;50.820;4.548;2024-03-23T03:08:00;6.50;99.90
11583;DHT22;34299;50.820;4.548;2024-03-23T03:10:27;6.30;99.90
11583;DHT22;34299;50.820;4.548;2024-03-23T03:12:53;6.30;99.90
11583;DHT22;34299;50.820;4.548;2024-03-23T03:15:21;6.20;99.90
11583;DHT22;34299;50.820;4.548;2024-03-23T03:17:47;6.30;99.90
11583;DHT22;34299;50.820;4.548;2024-03-23T03:20:14;6.30;99.90
11583;DHT22;34299;50.820;4.548;2024-03-23T03:22:41;6.30;99.90
11583;DHT22;34299;50.820;4.548;2024-03-23T03:25:08;6.30;99.90
11583;DHT22;34299;50.820;4.548;2024-03-23T03:27:34;6.30;99.90
11583;DHT22;34299;50.820;4.548;2024-03-23T03:30:01;6.30;99.90
11583;DHT22;34299;50.820;4.548;2024-03-23T03:32:29;6.40;99.90
11583;DHT22;34299;50.820;4.548;2024-03-23T03:34:57;6.40;99.90
11583;DHT22;34299;50.820;4.548;2024-03-23T03:37:23;6.40;99.90
11583;DHT22;34299;50.820;4.548;2024-03-23T03:39:50;6.30;99.90
11583;DHT22;34299;50.820;4.548;2024-03-23T03:42:15;6.30;99.90
11583;DHT22;34299;50.820;4.548;2024-03-23T03:44:42;6.30;99.90
11583;DHT22;34299;50.820;4.548;2024-03-23T03:47:08;6.30;99.90
11583;DHT22;34299;50.820;4.548;2024-03-23T03:49:36;6.30;99.90
11583;DHT22;34299;50.820;4.548;2024-03-23T03:52:02;6.20;99.90
11583;DHT22;34299;50.820;4.548;2024-03-23T03:54:30;6.10;99.90
11583;DHT22;34299;50.820;4.548;2024-03-23T03:56:55;6.20;99.90
11583;DHT22;34299;50.820;4.548;2024-03-23T03:59:22;6.30;99.90
11583;DHT22;34299;50.820;4.548;2024-03-23T04:01:48;6.20;99.90
11583;DHT22;34299;50.820;4.548;2024-03-23T04:04:15;6.10;99.90
11583;DHT22;34299;50.820;4.548;2024-03-23T04:06:43;6.20;99.90
11583;DHT22;34299;50.820;4.548;2024-03-23T04:09:10;6.10;99.90
11583;DHT22;34299;50.820;4.548;2024-03-23T04:11:36;6.00;99.90
11583;DHT22;34299;50.820;4.548;2024-03-23T04:14:03;6.10;99.90
11583;DHT22;34299;50.820;4.548;2024-03-23T04:16:31;6.10;99.90
11583;DHT22;34299;50.820;4.548;2024-03-23T04:18:58;6.10;99.90
11583;DHT22;34299;50.820;4.548;2024-03-23T04:21:24;6.10;99.90
11583;DHT22;34299;50.820;4.548;2024-03-23T04:23:53;6.00;99.90
11583;DHT22;34299;50.820;4.548;2024-03-23T04:26:18;6.00;99.90
11583;DHT22;34299;50.820;4.548;2024-03-23T04:28:45;6.30;99.90
11583;DHT22;34299;50.820;4.548;2024-03-23T04:31:11;6.00;99.90
11583;DHT22;34299;50.820;4.548;2024-03-23T04:33:38;6.00;99.90
11583;DHT22;34299;50.820;4.548;2024-03-23T04:36:05;6.00;99.90
11583;DHT22;34299;50.820;4.548;2024-03-23T04:38:32;5.90;99.90
11583;DHT22;34299;50.820;4.548;2024-03-23T04:41:01;5.90;99.90
11583;DHT22;34299;50.820;4.548;2024-03-23T04:43:28;6.10;99.90
11583;DHT22;34299;50.820;4.548;2024-03-23T04:45:55;6.10;99.90
11583;DHT22;34299;50.820;4.548;2024-03-23T04:48:22;6.00;99.90
11583;DHT22;34299;50.820;4.548;2024-03-23T04:50:54;6.10;99.90
11583;DHT22;34299;50.820;4.548;2024-03-23T04:53:21;6.20;99.90
11583;DHT22;34299;50.820;4.548;2024-03-23T04:55:50;6.00;99.90
11583;DHT22;34299;50.820;4.548;2024-03-23T04:58:18;6.00;99.90
11583;DHT22;34299;50.820;4.548;2024-03-23T05:00:44;6.10;99.90
11583;DHT22;34299;50.820;4.548;2024-03-23T05:03:11;6.10;99.90
11583;DHT22;34299;50.820;4.548;2024-03-23T05:05:37;6.00;99.90
11583;DHT22;34299;50.820;4.548;2024-03-23T05:08:04;6.20;99.90
11583;DHT22;34299;50.820;4.548;2024-03-23T05:10:30;6.10;99.90
11583;DHT22;34299;50.820;4.548;2024-03-23T05:12:58;6.20;99.90
11583;DHT22;34299;50.820;4.548;2024-03-23T05:15:25;6.00;99.90
11583;DHT22;34299;50.820;4.548;2024-03-23T05:17:53;6.00;99.90
11583;DHT22;34299;50.820;4.548;2024-03-23T05:20:19;6.20;99.90
11583;DHT22;34299;50.820;4.548;2024-03-23T05:22:46;6.00;99.90
11583;DHT22;34299;50.820;4.548;2024-03-23T05:25:12;5.90;99.90
11583;DHT22;34299;50.820;4.548;2024-03-23T05:27:39;5.90;99.90
11583;DHT22;34299;50.820;4.548;2024-03-23T05:30:06;5.80;99.90
11583;DHT22;34299;50.820;4.548;2024-03-23T05:32:35;6.00;99.90
11583;DHT22;34299;50.820;4.548;2024-03-23T05:35:01;6.00;99.90
11583;DHT22;34299;50.820;4.548;2024-03-23T05:37:28;5.90;99.90
11583;DHT22;34299;50.820;4.548;2024-03-23T05:39:56;5.90;99.90
11583;DHT22;34299;50.820;4.548;2024-03-23T05:42:23;6.00;99.90
11583;DHT22;34299;50.820;4.548;2024-03-23T05:44:49;5.80;99.90
11583;DHT22;34299;50.820;4.548;2024-03-23T05:47:16;5.80;99.90
11583;DHT22;34299;50.820;4.548;2024-03-23T05:49:43;5.90;99.90
11583;DHT22;34299;50.820;4.548;2024-03-23T05:52:10;5.80;99.90
11583;DHT22;34299;50.820;4.548;2024-03-23T05:54:36;5.70;99.90
11583;DHT22;34299;50.820;4.548;2024-03-23T05:57:03;5.70;99.90
11583;DHT22;34299;50.820;4.548;2024-03-23T05:59:29;5.80;99.90
11583;DHT22;34299;50.820;4.548;2024-03-23T06:01:56;5.80;99.90
11583;DHT22;34299;50.820;4.548;2024-03-23T06:04:22;5.70;99.90
11583;DHT22;34299;50.820;4.548;2024-03-23T06:06:50;5.80;99.90
11583;DHT22;34299;50.820;4.548;2024-03-23T06:09:17;5.90;99.90
11583;DHT22;34299;50.820;4.548;2024-03-23T06:11:44;5.80;99.90
11583;DHT22;34299;50.820;4.548;2024-03-23T06:14:10;5.90;99.90
11583;DHT22;34299;50.820;4.548;2024-03-23T06:16:37;6.10;99.90
11583;DHT22;34299;50.820;4.548;2024-03-23T06:19:03;5.80;99.90
11583;DHT22;34299;50.820;4.548;2024-03-23T06:21:32;5.70;99.90
11583;DHT22;34299;50.820;4.548;2024-03-23T06:23:59;5.80;99.90
11583;DHT22;34299;50.820;4.548;2024-03-23T06:26:26;5.90;99.90
11583;DHT22;34299;50.820;4.548;2024-03-23T06:28:52;5.90;99.90
11583;DHT22;34299;50.820;4.548;2024-03-23T06:31:19;5.80;99.90
11583;DHT22;34299;50.820;4.548;2024-03-23T06:33:45;5.90;99.90
11583;DHT22;34299;50.820;4.548;2024-03-23T06:36:12;6.00;99.90
11583;DHT22;34299;50.820;4.548;2024-03-23T06:38:38;6.00;99.90
11583;DHT22;34299;50.820;4.548;2024-03-23T06:41:06;6.10;99.90
11583;DHT22;34299;50.820;4.548;2024-03-23T06:43:32;6.20;99.90
11583;DHT22;34299;50.820;4.548;2024-03-23T06:45:59;6.10;99.90
11583;DHT22;34299;50.820;4.548;2024-03-23T06:48:25;6.10;99.90
11583;DHT22;34299;50.820;4.548;2024-03-23T06:50:55;6.10;99.90
11583;DHT22;34299;50.820;4.548;2024-03-23T06:53:22;6.10;99.90
11583;DHT22;34299;50.820;4.548;2024-03-23T06:55:50;6.00;99.90
11583;DHT22;34299;50.820;4.548;2024-03-23T06:58:19;5.90;99.90
11583;DHT22;34299;50.820;4.548;2024-03-23T07:00:45;6.10;99.90
11583;DHT22;34299;50.820;4.548;2024-03-23T07:03:12;6.00;99.90
11583;DHT22;34299;50.820;4.548;2024-03-23T07:05:39;6.00;99.90
11583;DHT22;34299;50.820;4.548;2024-03-23T07:08:05;6.20;99.90
11583;DHT22;34299;50.820;4.548;2024-03-23T07:10:32;6.10;99.90
11583;DHT22;34299;50.820;4.548;2024-03-23T07:12:58;6.20;99.90
11583;DHT22;34299;50.820;4.548;2024-03-23T07:15:27;6.10;99.90
11583;DHT22;34299;50.820;4.548;2024-03-23T07:17:52;6.20;99.90
11583;DHT22;34299;50.820;4.548;2024-03-23T07:20:19;6.30;99.90
11583;DHT22;34299;50.820;4.548;2024-03-23T07:22:45;5.90;99.90
11583;DHT22;34299;50.820;4.548;2024-03-23T07:25:13;5.90;99.90
11583;DHT22;34299;50.820;4.548;2024-03-23T07:27:39;5.60;99.90
11583;DHT22;34299;50.820;4.548;2024-03-23T08:26:35;5.20;99.90
11583;DHT22;34299;50.820;4.548;2024-03-23T08:29:03;6.70;99.90
11583;DHT22;34299;50.820;4.548;2024-03-23T08:31:29;6.70;99.90
11583;DHT22;34299;50.820;4.548;2024-03-23T08:33:56;6.40;99.90
11583;DHT22;34299;50.820;4.548;2024-03-23T08:36:22;6.50;99.90
11583;DHT22;34299;50.820;4.548;2024-03-23T08:38:49;6.50;99.90
11583;DHT22;34299;50.820;4.548;2024-03-23T08:41:20;6.90;99.90
11583;DHT22;34299;50.820;4.548;2024-03-23T08:43:47;6.80;99.90
11583;DHT22;34299;50.820;4.548;2024-03-23T08:46:14;6.70;99.90
11583;DHT22;34299;50.820;4.548;2024-03-23T08:48:43;6.90;99.90
11583;DHT22;34299;50.820;4.548;2024-03-23T08:51:11;6.80;99.90
11583;DHT22;34299;50.820;4.548;2024-03-23T08:53:38;6.90;99.90
11583;DHT22;34299;50.820;4.548;2024-03-23T08:56:05;6.90;99.90
11583;DHT22;34299;50.820;4.548;2024-03-23T08:58:35;7.00;99.90
11583;DHT22;34299;50.820;4.548;2024-03-23T09:01:04;6.90;99.90
11583;DHT22;34299;50.820;4.548;2024-03-23T09:03:31;6.80;99.90
11583;DHT22;34299;50.820;4.548;2024-03-23T09:05:57;6.90;99.90
11583;DHT22;34299;50.820;4.548;2024-03-23T09:08:24;6.90;99.90
11583;DHT22;34299;50.820;4.548;2024-03-23T09:10:50;7.10;99.90
11583;DHT22;34299;50.820;4.548;2024-03-23T09:13:17;7.40;99.90
11583;DHT22;34299;50.820;4.548;2024-03-23T09:15:47;7.30;99.90
11583;DHT22;34299;50.820;4.548;2024-03-23T09:18:15;7.80;99.90
11583;DHT22;34299;50.820;4.548;2024-03-23T09:20:41;7.70;99.90
11583;DHT22;34299;50.820;4.548;2024-03-23T09:23:08;7.40;99.90
11583;DHT22;34299;50.820;4.548;2024-03-23T09:25:36;7.40;99.90
11583;DHT22;34299;50.820;4.548;2024-03-23T09:28:04;7.50;99.90
11583;DHT22;34299;50.820;4.548;2024-03-23T09:30:32;7.50;99.90
11583;DHT22;34299;50.820;4.548;2024-03-23T09:33:00;7.50;99.90
11583;DHT22;34299;50.820;4.548;2024-03-23T09:35:26;7.50;99.90
11583;DHT22;34299;50.820;4.548;2024-03-23T09:37:53;7.60;99.90
11583;DHT22;34299;50.820;4.548;2024-03-23T09:40:20;8.00;99.90
11583;DHT22;34299;50.820;4.548;2024-03-23T09:42:50;7.60;99.90
11583;DHT22;34299;50.820;4.548;2024-03-23T09:45:17;7.80;99.90
11583;DHT22;34299;50.820;4.548;2024-03-23T09:47:47;7.90;99.90
11583;DHT22;34299;50.820;4.548;2024-03-23T09:50:14;8.00;99.90
11583;DHT22;34299;50.820;4.548;2024-03-23T09:52:41;8.10;99.90
11583;DHT22;34299;50.820;4.548;2024-03-23T09:55:08;8.10;99.90
11583;DHT22;34299;50.820;4.548;2024-03-23T09:57:35;8.30;99.90
11583;DHT22;34299;50.820;4.548;2024-03-23T10:00:01;8.40;99.90
11583;DHT22;34299;50.820;4.548;2024-03-23T10:02:29;8.40;99.90
11583;DHT22;34299;50.820;4.548;2024-03-23T10:04:55;8.30;99.90
11583;DHT22;34299;50.820;4.548;2024-03-23T10:07:25;8.40;99.90
11583;DHT22;34299;50.820;4.548;2024-03-23T10:09:51;8.40;99.90
11583;DHT22;34299;50.820;4.548;2024-03-23T10:12:19;8.50;99.90
11583;DHT22;34299;50.820;4.548;2024-03-23T10:14:46;8.40;99.90
11583;DHT22;34299;50.820;4.548;2024-03-23T10:17:14;8.70;99.90
11583;DHT22;34299;50.820;4.548;2024-03-23T10:19:40;8.80;99.90
11583;DHT22;34299;50.820;4.548;2024-03-23T10:22:09;8.80;99.90
11583;DHT22;34299;50.820;4.548;2024-03-23T10:24:36;8.70;99.90
11583;DHT22;34299;50.820;4.548;2024-03-23T10:27:03;8.60;99.90
11583;DHT22;34299;50.820;4.548;2024-03-23T10:29:29;8.40;99.90
11583;DHT22;34299;50.820;4.548;2024-03-23T10:32:08;8.30;99.90
11583;DHT22;34299;50.820;4.548;2024-03-23T10:34:35;8.30;99.90
11583;DHT22;34299;50.820;4.548;2024-03-23T10:37:02;8.10;99.90
11583;DHT22;34299;50.820;4.548;2024-03-23T10:39:31;8.00;99.90
11583;DHT22;34299;50.820;4.548;2024-03-23T10:42:01;8.00;99.90
11583;DHT22;34299;50.820;4.548;2024-03-23T10:44:28;7.90;99.90
11583;DHT22;34299;50.820;4.548;2024-03-23T10:46:57;8.10;99.90
11583;DHT22;34299;50.820;4.548;2024-03-23T10:49:26;8.60;99.90
11583;DHT22;34299;50.820;4.548;2024-03-23T10:51:57;8.60;99.90
11583;DHT22;34299;50.820;4.548;2024-03-23T10:54:24;8.00;99.90
11583;DHT22;34299;50.820;4.548;2024-03-23T10:56:55;8.10;99.90
11583;DHT22;34299;50.820;4.548;2024-03-23T11:01:55;8.50;99.90
11583;DHT22;34299;50.820;4.548;2024-03-23T11:04:31;8.90;99.90
11583;DHT22;34299;50.820;4.548;2024-03-23T11:06:58;9.30;99.90
11583;DHT22;34299;50.820;4.548;2024-03-23T11:09:48;9.30;99.90
11583;DHT22;34299;50.820;4.548;2024-03-23T11:12:29;9.20;99.90
11583;DHT22;34299;50.820;4.548;2024-03-23T11:15:01;9.50;99.90
11583;DHT22;34299;50.820;4.548;2024-03-23T11:17:28;9.40;99.90
11583;DHT22;34299;50.820;4.548;2024-03-23T11:19:56;9.00;99.90
11583;DHT22;34299;50.820;4.548;2024-03-23T11:22:47;8.60;99.90
11583;DHT22;34299;50.820;4.548;2024-03-23T11:25:15;9.00;99.90
11583;DHT22;34299;50.820;4.548;2024-03-23T11:27:43;9.10;99.90
11583;DHT22;34299;50.820;4.548;2024-03-23T11:30:14;9.70;99.90
11583;DHT22;34299;50.820;4.548;2024-03-23T11:32:41;9.70;99.90
11583;DHT22;34299;50.820;4.548;2024-03-23T11:35:09;9.00;99.90
11583;DHT22;34299;50.820;4.548;2024-03-23T11:37:36;8.70;99.90
11583;DHT22;34299;50.820;4.548;2024-03-23T11:47:41;8.40;99.90
11583;DHT22;34299;50.820;4.548;2024-03-23T11:50:08;9.00;99.90
11583;DHT22;34299;50.820;4.548;2024-03-23T11:52:35;9.70;99.90
11583;DHT22;34299;50.820;4.548;2024-03-23T11:55:06;9.10;99.90
11583;DHT22;34299;50.820;4.548;2024-03-23T11:57:34;9.30;99.90
11583;DHT22;34299;50.820;4.548;2024-03-23T12:00:01;9.00;99.90
11583;DHT22;34299;50.820;4.548;2024-03-23T12:02:28;9.20;99.90
11583;DHT22;34299;50.820;4.548;2024-03-23T12:04:55;9.50;99.90
11583;DHT22;34299;50.820;4.548;2024-03-23T12:07:21;9.90;99.90
11583;DHT22;34299;50.820;4.548;2024-03-23T12:10:02;8.90;99.90
11583;DHT22;34299;50.820;4.548;2024-03-23T12:12:29;8.70;99.90
11583;DHT22;34299;50.820;4.548;2024-03-23T12:22:24;8.80;99.90
11583;DHT22;34299;50.820;4.548;2024-03-23T12:24:51;8.10;99.90
11583;DHT22;34299;50.820;4.548;2024-03-23T12:39:36;8.30;99.90
11583;DHT22;34299;50.820;4.548;2024-03-23T12:42:02;7.70;99.90
11583;DHT22;34299;50.820;4.548;2024-03-23T12:44:29;7.30;99.90
11583;DHT22;34299;50.820;4.548;2024-03-23T12:46:55;7.40;99.90
11583;DHT22;34299;50.820;4.548;2024-03-23T12:49:22;7.30;99.90
11583;DHT22;34299;50.820;4.548;2024-03-23T12:51:54;7.40;99.90
11583;DHT22;34299;50.820;4.548;2024-03-23T12:54:21;8.00;99.90
11583;DHT22;34299;50.820;4.548;2024-03-23T12:56:47;8.80;99.90
11583;DHT22;34299;50.820;4.548;2024-03-23T12:59:14;9.60;99.90
11583;DHT22;34299;50.820;4.548;2024-03-23T13:01:42;9.70;99.90
11583;DHT22;34299;50.820;4.548;2024-03-23T13:04:09;9.20;99.90
11583;DHT22;34299;50.820;4.548;2024-03-23T13:06:35;9.40;99.90
11583;DHT22;34299;50.820;4.548;2024-03-23T13:09:03;10.00;99.90
11583;DHT22;34299;50.820;4.548;2024-03-23T13:11:29;9.50;99.90
11583;DHT22;34299;50.820;4.548;2024-03-23T13:13:56;9.40;99.90
11583;DHT22;34299;50.820;4.548;2024-03-23T13:16:22;9.90;99.90
11583;DHT22;34299;50.820;4.548;2024-03-23T13:18:50;10.30;99.90
11583;DHT22;34299;50.820;4.548;2024-03-23T13:21:15;10.50;99.90
11583;DHT22;34299;50.820;4.548;2024-03-23T13:23:45;11.40;99.90
11583;DHT22;34299;50.820;4.548;2024-03-23T13:33:36;11.10;99.90
11583;DHT22;34299;50.820;4.548;2024-03-23T13:36:02;9.90;99.90
11583;DHT22;34299;50.820;4.548;2024-03-23T13:38:29;9.40;99.90
11583;DHT22;34299;50.820;4.548;2024-03-23T13:40:56;9.90;99.90
11583;DHT22;34299;50.820;4.548;2024-03-23T13:43:26;10.40;99.90
11583;DHT22;34299;50.820;4.548;2024-03-23T13:45:54;10.60;99.90
11583;DHT22;34299;50.820;4.548;2024-03-23T13:48:23;10.70;99.90
11583;DHT22;34299;50.820;4.548;2024-03-23T13:50:57;10.50;99.90
11583;DHT22;34299;50.820;4.548;2024-03-23T13:53:24;10.80;99.90
11583;DHT22;34299;50.820;4.548;2024-03-23T13:55:50;10.60;99.90
11583;DHT22;34299;50.820;4.548;2024-03-23T13:58:17;10.40;99.90
11583;DHT22;34299;50.820;4.548;2024-03-23T14:00:44;10.60;99.90
11583;DHT22;34299;50.820;4.548;2024-03-23T14:03:12;10.30;99.90
11583;DHT22;34299;50.820;4.548;2024-03-23T14:05:39;10.70;99.90
11583;DHT22;34299;50.820;4.548;2024-03-23T14:08:06;11.00;99.90
11583;DHT22;34299;50.820;4.548;2024-03-23T14:10:32;11.70;99.90
11583;DHT22;34299;50.820;4.548;2024-03-23T14:13:01;11.20;99.90
11583;DHT22;34299;50.820;4.548;2024-03-23T14:15:27;11.00;99.90
11583;DHT22;34299;50.820;4.548;2024-03-23T14:17:55;11.20;99.90
11583;DHT22;34299;50.820;4.548;2024-03-23T14:20:21;10.60;99.90
11583;DHT22;34299;50.820;4.548;2024-03-23T14:22:49;10.40;99.90
11583;DHT22;34299;50.820;4.548;2024-03-23T14:25:15;10.40;99.90
11583;DHT22;34299;50.820;4.548;2024-03-23T14:27:44;10.20;99.90
11583;DHT22;34299;50.820;4.548;2024-03-23T14:30:11;10.00;99.90
11583;DHT22;34299;50.820;4.548;2024-03-23T14:32:39;10.60;99.90
11583;DHT22;34299;50.820;4.548;2024-03-23T14:35:07;10.50;99.90
11583;DHT22;34299;50.820;4.548;2024-03-23T14:37:36;11.30;99.90
11583;DHT22;34299;50.820;4.548;2024-03-23T14:40:02;11.80;99.90
11583;DHT22;34299;50.820;4.548;2024-03-23T14:42:30;12.00;99.90
11583;DHT22;34299;50.820;4.548;2024-03-23T14:44:56;13.00;99.90
11583;DHT22;34299;50.820;4.548;2024-03-23T14:47:23;12.30;99.90
11583;DHT22;34299;50.820;4.548;2024-03-23T14:49:49;12.10;99.90
11583;DHT22;34299;50.820;4.548;2024-03-23T14:52:18;11.90;99.90
11583;DHT22;34299;50.820;4.548;2024-03-23T14:54:44;12.20;99.90
11583;DHT22;34299;50.820;4.548;2024-03-23T14:57:11;13.30;99.90
11583;DHT22;34299;50.820;4.548;2024-03-23T14:59:37;14.50;99.90
11583;DHT22;34299;50.820;4.548;2024-03-23T15:02:04;14.80;99.90
11583;DHT22;34299;50.820;4.548;2024-03-23T15:04:30;14.30;99.90
11583;DHT22;34299;50.820;4.548;2024-03-23T15:06:57;13.50;99.90
11583;DHT22;34299;50.820;4.548;2024-03-23T15:09:24;13.00;99.90
11583;DHT22;34299;50.820;4.548;2024-03-23T15:11:51;12.80;99.90
11583;DHT22;34299;50.820;4.548;2024-03-23T15:14:17;14.30;99.90
11583;DHT22;34299;50.820;4.548;2024-03-23T15:16:44;14.50;99.90
11583;DHT22;34299;50.820;4.548;2024-03-23T15:19:10;13.30;99.90
11583;DHT22;34299;50.820;4.548;2024-03-23T15:21:36;15.90;99.90
11583;DHT22;34299;50.820;4.548;2024-03-23T15:24:03;16.20;99.90
11583;DHT22;34299;50.820;4.548;2024-03-23T15:26:31;14.00;99.90
11583;DHT22;34299;50.820;4.548;2024-03-23T15:28:58;15.00;99.90
11583;DHT22;34299;50.820;4.548;2024-03-23T15:31:37;14.90;99.90
11583;DHT22;34299;50.820;4.548;2024-03-23T15:34:03;13.50;99.90
11583;DHT22;34299;50.820;4.548;2024-03-23T15:36:31;13.40;99.90
11583;DHT22;34299;50.820;4.548;2024-03-23T15:38:57;12.90;99.90
11583;DHT22;34299;50.820;4.548;2024-03-23T15:41:24;13.60;99.90
11583;DHT22;34299;50.820;4.548;2024-03-23T15:43:51;14.00;99.90
11583;DHT22;34299;50.820;4.548;2024-03-23T15:46:18;13.10;99.90
11583;DHT22;34299;50.820;4.548;2024-03-23T15:48:45;12.20;99.90
11583;DHT22;34299;50.820;4.548;2024-03-23T15:51:13;11.00;99.90
11583;DHT22;34299;50.820;4.548;2024-03-23T15:53:39;10.20;99.90
11583;DHT22;34299;50.820;4.548;2024-03-23T15:56:07;10.20;99.90
11583;DHT22;34299;50.820;4.548;2024-03-23T15:58:33;10.40;99.90
11583;DHT22;34299;50.820;4.548;2024-03-23T16:01:03;10.40;99.90
11583;DHT22;34299;50.820;4.548;2024-03-23T16:03:31;10.20;99.90
11583;DHT22;34299;50.820;4.548;2024-03-23T16:06:00;10.60;99.90
11583;DHT22;34299;50.820;4.548;2024-03-23T16:08:26;10.80;99.90
11583;DHT22;34299;50.820;4.548;2024-03-23T16:10:53;10.30;99.90
11583;DHT22;34299;50.820;4.548;2024-03-23T16:13:20;10.50;99.90
11583;DHT22;34299;50.820;4.548;2024-03-23T16:15:54;11.10;99.90
11583;DHT22;34299;50.820;4.548;2024-03-23T16:18:22;10.80;99.90
11583;DHT22;34299;50.820;4.548;2024-03-23T16:20:53;13.70;99.90
11583;DHT22;34299;50.820;4.548;2024-03-23T16:23:19;13.60;99.90
11583;DHT22;34299;50.820;4.548;2024-03-23T16:28:14;12.10;99.90
11583;DHT22;34299;50.820;4.548;2024-03-23T16:30:41;10.70;99.90
11583;DHT22;34299;50.820;4.548;2024-03-23T16:33:07;10.60;99.90
11583;DHT22;34299;50.820;4.548;2024-03-23T16:35:37;10.90;99.90
11583;DHT22;34299;50.820;4.548;2024-03-23T16:38:03;10.90;99.90
11583;DHT22;34299;50.820;4.548;2024-03-23T16:40:30;10.50;99.90
11583;DHT22;34299;50.820;4.548;2024-03-23T16:42:56;10.00;99.90
11583;DHT22;34299;50.820;4.548;2024-03-23T16:45:23;9.90;99.90
11583;DHT22;34299;50.820;4.548;2024-03-23T16:47:48;9.90;99.90
11583;DHT22;34299;50.820;4.548;2024-03-23T16:50:15;9.80;99.90
11583;DHT22;34299;50.820;4.548;2024-03-23T16:52:43;9.80;99.90
11583;DHT22;34299;50.820;4.548;2024-03-23T16:55:10;9.80;99.90
11583;DHT22;34299;50.820;4.548;2024-03-23T16:57:35;9.60;99.90
11583;DHT22;34299;50.820;4.548;2024-03-23T17:00:03;9.40;99.90
11583;DHT22;34299;50.820;4.548;2024-03-23T17:02:29;9.60;99.90
11583;DHT22;34299;50.820;4.548;2024-03-23T17:04:58;9.60;99.90
11583;DHT22;34299;50.820;4.548;2024-03-23T17:07:24;9.30;99.90
11583;DHT22;34299;50.820;4.548;2024-03-23T17:09:52;9.50;99.90
11583;DHT22;34299;50.820;4.548;2024-03-23T17:12:18;9.30;99.90
11583;DHT22;34299;50.820;4.548;2024-03-23T17:14:45;9.30;99.90
11583;DHT22;34299;50.820;4.548;2024-03-23T17:17:11;9.40;99.90
11583;DHT22;34299;50.820;4.548;2024-03-23T17:19:38;9.20;99.90
11583;DHT22;34299;50.820;4.548;2024-03-23T17:22:04;9.20;99.90
11583;DHT22;34299;50.820;4.548;2024-03-23T17:24:31;9.40;99.90
11583;DHT22;34299;50.820;4.548;2024-03-23T17:26:59;8.90;99.90
11583;DHT22;34299;50.820;4.548;2024-03-23T17:29:25;9.00;99.90
11583;DHT22;34299;50.820;4.548;2024-03-23T17:31:51;9.10;99.90
11583;DHT22;34299;50.820;4.548;2024-03-23T17:34:18;9.10;99.90
11583;DHT22;34299;50.820;4.548;2024-03-23T17:36:44;9.00;99.90
11583;DHT22;34299;50.820;4.548;2024-03-23T17:39:11;8.90;99.90
11583;DHT22;34299;50.820;4.548;2024-03-23T17:41:38;9.20;99.90
11583;DHT22;34299;50.820;4.548;2024-03-23T17:44:06;8.80;99.90
11583;DHT22;34299;50.820;4.548;2024-03-23T17:46:32;8.80;99.90
11583;DHT22;34299;50.820;4.548;2024-03-23T17:48:59;8.80;99.90
11583;DHT22;34299;50.820;4.548;2024-03-23T17:51:25;8.70;99.90
11583;DHT22;34299;50.820;4.548;2024-03-23T17:53:53;8.90;99.90
11583;DHT22;34299;50.820;4.548;2024-03-23T17:56:19;8.80;99.90
11583;DHT22;34299;50.820;4.548;2024-03-23T17:58:48;8.70;99.90
11583;DHT22;34299;50.820;4.548;2024-03-23T18:01:15;8.10;99.90
11583;DHT22;34299;50.820;4.548;2024-03-23T18:03:51;7.60;99.90
11583;DHT22;34299;50.820;4.548;2024-03-23T18:06:17;7.10;99.90
11583;DHT22;34299;50.820;4.548;2024-03-23T18:08:43;6.60;99.90
11583;DHT22;34299;50.820;4.548;2024-03-23T18:11:09;6.40;99.90
11583;DHT22;34299;50.820;4.548;2024-03-23T18:13:36;5.80;99.90